createdAt,value
2018-07-19T00:01:56.683Z,77.41
2018-07-19T00:04:23.702Z,77.09
2018-07-19T00:06:50.690Z,76.78
2018-07-19T00:09:17.678Z,77.12
2018-07-19T00:11:44.696Z,76.88
2018-07-19T00:14:11.705Z,77.10
2018-07-19T00:16:38.696Z,77.01
2018-07-19T00:19:05.732Z,76.76
2018-07-19T00:21:32.692Z,77.38
2018-07-19T00:24:00.051Z,76.90
2018-07-19T00:26:27.025Z,77.54
2018-07-19T00:28:54.045Z,77.55
2018-07-19T00:31:21.135Z,77.54
2018-07-19T00:33:48.175Z,77.10
2018-07-19T00:36:15.144Z,77.44
2018-07-19T00:38:42.158Z,76.79
2018-07-19T00:41:09.188Z,77.24
2018-07-19T00:43:36.356Z,77.30
2018-07-19T00:46:03.370Z,77.61
2018-07-19T00:48:30.324Z,77.31
2018-07-19T00:50:57.339Z,77.35
2018-07-19T00:53:24.356Z,77.61
2018-07-19T00:55:51.481Z,77.43
2018-07-19T00:58:18.476Z,77.87
2018-07-19T01:00:45.488Z,78.08
2018-07-19T01:03:12.604Z,78.18
2018-07-19T01:05:39.649Z,78.21
2018-07-19T01:08:06.665Z,77.60
2018-07-19T01:10:33.652Z,77.66
2018-07-19T01:13:00.645Z,78.00
2018-07-19T01:15:27.693Z,77.58
2018-07-19T01:17:54.667Z,77.91
2018-07-19T01:20:21.653Z,77.80
2018-07-19T01:22:48.940Z,77.92
2018-07-19T01:25:16.197Z,78.29
2018-07-19T01:27:43.233Z,78.43
2018-07-19T01:30:10.257Z,78.40
2018-07-19T01:32:37.318Z,78.02
2018-07-19T01:35:04.529Z,77.86
2018-07-19T01:37:31.549Z,77.89
2018-07-19T01:39:58.529Z,77.82
2018-07-19T01:42:32.173Z,78.09
2018-07-19T01:44:59.220Z,78.22
2018-07-19T01:47:26.252Z,78.61
2018-07-19T01:49:53.258Z,78.17
2018-07-19T01:52:20.236Z,78.76
2018-07-19T01:54:47.264Z,78.91
2018-07-19T01:57:15.476Z,78.68
2018-07-19T01:59:43.097Z,78.64
2018-07-19T02:02:10.320Z,78.80
2018-07-19T02:04:37.309Z,78.82
2018-07-19T02:07:04.901Z,78.85
2018-07-19T02:09:31.949Z,79.18
2018-07-19T02:11:59.263Z,79.45
2018-07-19T02:14:26.264Z,79.53
2018-07-19T02:16:53.529Z,79.23
2018-07-19T02:19:20.565Z,79.32
2018-07-19T02:21:47.605Z,79.55
2018-07-19T02:24:14.712Z,79.76
2018-07-19T02:26:41.786Z,79.82
2018-07-19T02:29:09.429Z,79.75
2018-07-19T02:31:36.621Z,79.96
2018-07-19T02:34:04.181Z,80.12
2018-07-19T02:36:31.261Z,80.14
2018-07-19T02:38:58.464Z,80.04
2018-07-19T02:41:25.541Z,80.47
2018-07-19T02:43:52.631Z,80.26
2018-07-19T02:46:19.658Z,80.76
2018-07-19T02:48:46.673Z,80.60
2018-07-19T02:51:13.821Z,80.52
2018-07-19T02:53:40.965Z,80.50
2018-07-19T02:56:08.153Z,80.63
2018-07-19T02:58:35.605Z,80.42
2018-07-19T03:01:02.626Z,80.73
2018-07-19T03:03:29.669Z,80.63
2018-07-19T03:05:56.633Z,80.39
2018-07-19T03:08:23.649Z,80.32
2018-07-19T03:10:50.761Z,80.32
2018-07-19T03:13:17.736Z,80.63
2018-07-19T03:15:44.737Z,80.87
2018-07-19T03:18:11.728Z,80.91
2018-07-19T03:20:39.274Z,80.58
2018-07-19T03:23:06.349Z,80.38
2018-07-19T03:25:33.425Z,80.59
2018-07-19T03:28:00.409Z,80.20
2018-07-19T03:30:27.408Z,79.92
2018-07-19T03:32:54.507Z,79.91
2018-07-19T03:35:21.604Z,79.85
2018-07-19T03:37:48.613Z,79.90
2018-07-19T03:40:15.631Z,79.73
2018-07-19T03:42:42.709Z,79.55
2018-07-19T03:45:10.381Z,79.83
2018-07-19T03:47:37.479Z,79.83
2018-07-19T03:50:04.532Z,79.89
2018-07-19T03:52:31.616Z,79.49
2018-07-19T03:54:58.848Z,79.40
2018-07-19T03:57:25.898Z,79.18
2018-07-19T03:59:53.650Z,79.07
2018-07-19T04:02:20.669Z,79.24
2018-07-19T04:04:47.672Z,79.19
2018-07-19T04:07:14.696Z,79.05
2018-07-19T04:09:41.690Z,78.56
2018-07-19T04:12:08.830Z,78.85
2018-07-19T04:14:35.850Z,78.31
2018-07-19T04:17:02.947Z,78.74
2018-07-19T04:19:29.905Z,78.03
2018-07-19T04:21:56.975Z,78.05
2018-07-19T04:24:24.340Z,77.55
2018-07-19T04:26:51.385Z,76.97
2018-07-19T04:29:19.419Z,77.18
2018-07-19T04:31:46.454Z,76.50
2018-07-19T04:34:13.497Z,76.82
2018-07-19T04:36:40.650Z,75.98
2018-07-19T04:39:08.633Z,76.02
2018-07-19T04:41:35.663Z,75.90
2018-07-19T04:44:02.640Z,75.05
2018-07-19T04:46:29.748Z,75.45
2018-07-19T04:48:56.753Z,75.01
2018-07-19T04:51:23.749Z,75.41
2018-07-19T04:53:50.773Z,74.98
2018-07-19T04:56:17.807Z,75.17
2018-07-19T04:58:44.818Z,74.79
2018-07-19T05:01:11.828Z,74.40
2018-07-19T05:03:38.848Z,74.80
2018-07-19T05:06:05.934Z,74.50
2018-07-19T05:08:32.957Z,74.37
2018-07-19T05:10:59.976Z,74.02
2018-07-19T05:13:26.997Z,74.05
2018-07-19T05:15:54.168Z,74.06
2018-07-19T05:18:21.245Z,74.32
2018-07-19T05:20:48.313Z,74.13
2018-07-19T05:23:15.496Z,74.59
2018-07-19T05:25:43.663Z,74.84
2018-07-19T05:28:10.709Z,75.04
2018-07-19T05:30:37.701Z,75.12
2018-07-19T05:33:04.795Z,75.04
2018-07-19T05:35:31.841Z,74.97
2018-07-19T05:37:58.845Z,75.28
2018-07-19T05:40:25.980Z,75.54
2018-07-19T05:42:53.200Z,75.39
2018-07-19T05:45:20.261Z,75.03
2018-07-19T05:47:47.281Z,75.45
2018-07-19T05:50:14.274Z,75.49
2018-07-19T05:52:41.320Z,75.59
2018-07-19T05:55:08.436Z,74.91
2018-07-19T05:57:35.589Z,75.59
2018-07-19T06:00:02.669Z,74.50
2018-07-19T06:02:29.668Z,74.38
2018-07-19T06:04:56.727Z,74.45
2018-07-19T06:07:23.733Z,74.19
2018-07-19T06:09:50.730Z,74.58
2018-07-19T06:12:17.747Z,74.34
2018-07-19T06:14:44.733Z,74.39
2018-07-19T06:17:11.813Z,74.28
2018-07-19T06:19:38.848Z,73.83
2018-07-19T06:22:05.895Z,73.88
2018-07-19T06:24:32.955Z,73.49
2018-07-19T06:26:59.985Z,72.55
2018-07-19T06:29:26.949Z,72.26
2018-07-19T06:31:54.285Z,71.20
2018-07-19T06:34:21.308Z,70.69
2018-07-19T06:36:48.356Z,69.61
2018-07-19T06:39:15.485Z,67.53
2018-07-19T06:41:42.497Z,68.23
2018-07-19T06:44:09.524Z,67.80
2018-07-19T06:46:36.617Z,67.85
2018-07-19T06:49:03.674Z,67.87
2018-07-19T06:51:30.711Z,67.80
2018-07-19T06:53:57.709Z,67.85
2018-07-19T06:56:24.717Z,67.27
2018-07-19T06:58:51.762Z,66.97
2018-07-19T07:01:18.797Z,66.90
2018-07-19T07:03:45.789Z,66.00
2018-07-19T07:06:12.908Z,65.99
2018-07-19T07:08:39.925Z,65.50
2018-07-19T07:11:07.146Z,64.75
2018-07-19T07:13:34.189Z,64.63
2018-07-19T07:16:01.205Z,64.57
2018-07-19T07:18:28.240Z,63.66
2018-07-19T07:20:55.205Z,63.29
2018-07-19T07:23:22.269Z,62.72
2018-07-19T07:25:53.840Z,63.39
2018-07-19T07:28:22.196Z,60.91
2018-07-19T07:30:49.097Z,61.23
2018-07-19T07:33:16.811Z,60.97
2018-07-19T07:35:44.357Z,60.68
2018-07-19T07:38:11.493Z,60.76
2018-07-19T07:40:38.526Z,58.54
2018-07-19T07:43:07.121Z,59.13
2018-07-19T07:45:34.277Z,57.98
2018-07-19T07:48:01.465Z,58.36
2018-07-19T07:50:29.093Z,58.66
2018-07-19T07:52:56.181Z,59.25
2018-07-19T07:55:23.213Z,58.61
2018-07-19T07:57:50.345Z,58.76
2018-07-19T08:00:17.405Z,56.26
2018-07-19T08:02:44.549Z,56.81
2018-07-19T08:05:11.543Z,56.61
2018-07-19T08:07:38.560Z,56.73
2018-07-19T08:10:05.570Z,56.00
2018-07-19T08:12:32.593Z,56.03
2018-07-19T08:14:59.632Z,55.99
2018-07-19T08:17:26.677Z,53.72
2018-07-19T08:19:53.694Z,53.82
2018-07-19T08:22:20.717Z,53.93
2018-07-19T08:24:47.724Z,53.63
2018-07-19T08:27:14.745Z,52.43
2018-07-19T08:29:41.748Z,52.53
2018-07-19T08:32:08.833Z,51.90
2018-07-19T08:34:35.893Z,52.17
2018-07-19T08:37:02.941Z,52.65
2018-07-19T08:39:29.937Z,53.04
2018-07-19T08:41:57.009Z,53.34
2018-07-19T08:44:23.977Z,53.38
2018-07-19T08:46:51.005Z,51.26
2018-07-19T08:49:18.021Z,52.34
2018-07-19T08:51:45.026Z,51.54
2018-07-19T08:54:12.054Z,50.78
2018-07-19T08:56:39.165Z,51.13
2018-07-19T08:59:06.192Z,50.28
2018-07-19T09:01:33.219Z,50.47
2018-07-19T09:04:00.220Z,49.75
2018-07-19T09:06:27.273Z,50.68
2018-07-19T09:08:54.273Z,51.25
2018-07-19T09:11:21.246Z,51.35
2018-07-19T09:13:48.236Z,50.50
2018-07-19T09:16:15.337Z,50.68
2018-07-19T09:18:42.413Z,49.90
2018-07-19T09:21:09.397Z,49.02
2018-07-19T09:23:36.449Z,49.06
2018-07-19T09:26:03.520Z,49.06
2018-07-19T09:28:30.540Z,47.89
2018-07-19T09:30:57.529Z,48.06
2018-07-19T09:33:24.541Z,48.30
2018-07-19T09:35:51.856Z,48.34
2018-07-19T09:38:19.297Z,47.55
2018-07-19T09:40:46.329Z,47.91
2018-07-19T09:43:13.817Z,48.58
2018-07-19T09:45:40.941Z,48.76
2018-07-19T09:48:07.941Z,48.19
2018-07-19T09:50:34.967Z,48.35
2018-07-19T09:53:02.079Z,49.09
2018-07-19T09:55:29.117Z,48.16
2018-07-19T09:57:56.259Z,48.00
2018-07-19T10:00:28.980Z,47.37
2018-07-19T10:02:55.981Z,46.27
2018-07-19T10:05:23.045Z,46.63
2018-07-19T10:07:50.062Z,46.99
2018-07-19T10:10:17.106Z,46.66
2018-07-19T10:12:44.713Z,46.75
2018-07-19T10:15:11.689Z,47.23
2018-07-19T10:17:38.852Z,46.98
2018-07-19T10:20:05.869Z,45.84
2018-07-19T10:22:32.884Z,45.52
2018-07-19T10:24:59.869Z,45.05
2018-07-19T10:27:26.896Z,44.75
2018-07-19T10:29:53.945Z,44.11
2018-07-19T10:32:21.751Z,44.89
2018-07-19T10:34:48.591Z,44.92
2018-07-19T10:37:15.592Z,44.77
2018-07-19T10:39:43.062Z,44.11
2018-07-19T10:42:10.073Z,43.61
2018-07-19T10:44:37.125Z,43.78
2018-07-19T10:47:04.177Z,42.39
2018-07-19T10:49:31.224Z,43.24
2018-07-19T10:51:58.208Z,43.37
2018-07-19T10:54:25.189Z,43.38
2018-07-19T10:56:52.185Z,42.81
2018-07-19T10:59:19.172Z,43.04
2018-07-19T11:01:46.205Z,43.75
2018-07-19T11:04:13.333Z,43.51
2018-07-19T11:06:40.365Z,42.53
2018-07-19T11:09:07.882Z,42.85
2018-07-19T11:11:34.885Z,42.77
2018-07-19T11:14:01.906Z,43.90
2018-07-19T11:16:29.029Z,43.68
2018-07-19T11:18:56.034Z,43.59
2018-07-19T11:21:23.021Z,44.38
2018-07-19T11:23:50.076Z,43.68
2018-07-19T11:26:17.648Z,43.40
2018-07-19T11:28:44.643Z,43.68
2018-07-19T11:31:11.633Z,43.92
2018-07-19T11:33:38.596Z,43.78
2018-07-19T11:36:06.357Z,44.73
2018-07-19T11:38:33.381Z,42.97
2018-07-19T11:41:00.496Z,44.46
2018-07-19T11:43:27.457Z,45.20
2018-07-19T11:45:54.470Z,44.10
2018-07-19T11:48:22.164Z,43.21
2018-07-19T11:50:50.439Z,43.01
2018-07-19T11:53:17.412Z,43.19
2018-07-19T11:55:44.442Z,41.99
2018-07-19T11:58:11.515Z,42.25
2018-07-19T12:00:38.521Z,42.22
2018-07-19T12:03:05.505Z,41.92
2018-07-19T12:05:32.465Z,41.16
2018-07-19T12:07:59.576Z,42.07
2018-07-19T12:10:26.573Z,41.74
2018-07-19T12:12:53.597Z,42.46
2018-07-19T12:15:20.581Z,41.59
2018-07-19T12:17:47.613Z,41.78
2018-07-19T12:20:14.637Z,40.13
2018-07-19T12:22:41.849Z,40.16
2018-07-19T12:25:08.865Z,40.40
2018-07-19T12:27:35.881Z,40.64
2018-07-19T12:30:03.225Z,39.60
2018-07-19T12:32:30.297Z,39.40
2018-07-19T12:34:57.279Z,40.08
2018-07-19T12:37:24.269Z,39.48
2018-07-19T12:39:51.373Z,38.85
2018-07-19T12:42:18.345Z,39.60
2018-07-19T12:44:45.395Z,39.48
2018-07-19T12:47:13.085Z,39.15
2018-07-19T12:49:40.189Z,40.15
2018-07-19T12:52:07.181Z,39.88
2018-07-19T12:54:34.172Z,39.54
2018-07-19T12:57:01.443Z,40.96
2018-07-19T12:59:28.452Z,40.74
2018-07-19T13:01:55.432Z,40.58
2018-07-19T13:04:22.388Z,40.50
2018-07-19T13:06:49.742Z,40.15
2018-07-19T13:09:16.717Z,40.03
2018-07-19T13:11:43.673Z,39.45
2018-07-19T13:14:10.661Z,39.96
2018-07-19T13:16:37.619Z,39.58
2018-07-19T13:19:04.629Z,39.01
2018-07-19T13:21:31.704Z,38.91
2018-07-19T13:23:58.961Z,39.41
2018-07-19T13:26:26.117Z,40.23
2018-07-19T13:28:53.976Z,39.68
2018-07-19T13:31:21.029Z,37.67
2018-07-19T13:33:48.029Z,38.15
2018-07-19T13:36:15.137Z,36.95
2018-07-19T13:38:42.166Z,37.47
2018-07-19T13:41:09.157Z,38.84
2018-07-19T13:43:36.165Z,38.55
2018-07-19T13:46:03.181Z,39.32
2018-07-19T13:48:30.800Z,38.09
2018-07-19T13:50:57.753Z,37.19
2018-07-19T13:53:39.078Z,38.35
2018-07-19T13:56:06.973Z,36.77
2018-07-19T13:58:34.930Z,36.17
2018-07-19T14:01:02.077Z,36.31
2018-07-19T14:03:29.574Z,37.12
2018-07-19T14:05:56.589Z,37.34
2018-07-19T14:08:24.026Z,36.07
2018-07-19T14:10:51.058Z,35.17
2018-07-19T14:13:18.061Z,36.50
2018-07-19T14:15:45.165Z,36.03
2018-07-19T14:18:12.693Z,36.86
2018-07-19T14:20:39.678Z,37.71
2018-07-19T14:23:06.818Z,36.87
2018-07-19T14:25:33.800Z,37.89
2018-07-19T14:28:01.198Z,36.90
2018-07-19T14:30:28.197Z,37.03
2018-07-19T14:32:55.193Z,37.23
2018-07-19T14:35:22.173Z,38.10
2018-07-19T14:37:49.522Z,38.62
2018-07-19T14:40:16.526Z,38.88
2018-07-19T14:42:43.504Z,39.43
2018-07-19T14:45:10.516Z,38.80
2018-07-19T14:47:37.597Z,38.95
2018-07-19T14:50:04.717Z,39.36
2018-07-19T14:52:31.713Z,38.56
2018-07-19T14:54:58.917Z,38.04
2018-07-19T14:57:25.929Z,38.71
2018-07-19T14:59:52.973Z,40.24
2018-07-19T15:02:19.997Z,39.69
2018-07-19T15:04:47.039Z,39.28
2018-07-19T15:07:14.116Z,39.68
2018-07-19T15:09:41.077Z,39.66
2018-07-19T15:12:08.144Z,39.74
2018-07-19T15:14:35.129Z,40.93
2018-07-19T15:17:02.117Z,40.81
2018-07-19T15:19:29.097Z,39.88
2018-07-19T15:21:56.078Z,40.40
2018-07-19T15:24:23.058Z,41.29
2018-07-19T15:26:50.061Z,41.24
2018-07-19T15:29:17.101Z,41.23
2018-07-19T15:31:44.080Z,41.33
2018-07-19T15:34:11.106Z,41.43
2018-07-19T15:36:38.085Z,42.44
2018-07-19T15:39:06.416Z,41.96
2018-07-19T15:41:33.553Z,42.55
2018-07-19T15:44:00.584Z,41.98
2018-07-19T15:46:27.560Z,42.44
2018-07-19T15:48:54.931Z,41.97
2018-07-19T15:51:21.962Z,42.21
2018-07-19T15:53:49.014Z,42.71
2018-07-19T15:56:15.996Z,42.79
2018-07-19T15:58:43.017Z,41.96
2018-07-19T16:01:10.037Z,41.84
2018-07-19T16:03:38.162Z,41.48
2018-07-19T16:06:05.233Z,42.29
2018-07-19T16:08:32.460Z,42.03
2018-07-19T16:10:59.520Z,41.95
2018-07-19T16:13:26.487Z,41.93
2018-07-19T16:15:54.466Z,41.90
2018-07-19T16:18:21.455Z,41.94
2018-07-19T16:20:48.478Z,42.65
2018-07-19T16:23:15.433Z,42.64
2018-07-19T16:25:42.468Z,42.39
2018-07-19T16:28:09.456Z,42.28
2018-07-19T16:30:36.570Z,42.26
2018-07-19T16:33:03.696Z,43.29
2018-07-19T16:35:30.711Z,42.37
2018-07-19T16:37:57.745Z,42.46
2018-07-19T16:40:24.746Z,42.21
2018-07-19T16:42:51.812Z,42.71
2018-07-19T16:45:18.760Z,41.89
2018-07-19T16:47:45.781Z,42.16
2018-07-19T16:50:12.788Z,41.58
2018-07-19T16:52:39.817Z,41.74
2018-07-19T16:55:06.973Z,41.94
2018-07-19T16:57:34.010Z,41.37
2018-07-19T17:00:00.992Z,42.48
2018-07-19T17:02:28.022Z,41.28
2018-07-19T17:04:55.012Z,41.33
2018-07-19T17:07:22.003Z,41.83
2018-07-19T17:09:49.016Z,41.67
2018-07-19T17:12:16.125Z,41.73
2018-07-19T17:14:43.092Z,41.42
2018-07-19T17:17:10.110Z,41.31
2018-07-19T17:19:39.176Z,41.44
2018-07-19T17:22:06.177Z,41.17
2018-07-19T17:24:33.144Z,40.96
2018-07-19T17:27:00.181Z,41.71
2018-07-19T17:29:27.317Z,41.00
2018-07-19T17:31:54.321Z,41.33
2018-07-19T17:34:21.481Z,41.56
2018-07-19T17:36:48.446Z,42.21
2018-07-19T17:39:15.468Z,41.77
2018-07-19T17:41:42.524Z,41.83
2018-07-19T17:44:09.624Z,41.53
2018-07-19T17:46:36.849Z,41.12
2018-07-19T17:49:04.434Z,41.13
2018-07-19T17:51:31.556Z,41.88
2018-07-19T17:53:58.549Z,41.55
2018-07-19T17:56:25.512Z,42.38
2018-07-19T17:58:52.476Z,41.71
2018-07-19T18:01:19.664Z,41.84
2018-07-19T18:03:46.903Z,41.85
2018-07-19T18:06:13.997Z,42.20
2018-07-19T18:08:41.080Z,42.44
2018-07-19T18:11:08.177Z,41.58
2018-07-19T18:13:35.985Z,42.35
2018-07-19T18:16:03.117Z,43.05
2018-07-19T18:18:30.713Z,42.42
2018-07-19T18:20:57.784Z,43.07
2018-07-19T18:23:24.813Z,42.39
2018-07-19T18:25:51.821Z,42.36
2018-07-19T18:28:18.841Z,42.87
2018-07-19T18:30:45.910Z,43.10
2018-07-19T18:33:13.181Z,43.10
2018-07-19T18:35:40.297Z,43.93
2018-07-19T18:38:07.305Z,43.70
2018-07-19T18:40:34.629Z,43.56
2018-07-19T18:43:01.633Z,43.88
2018-07-19T18:45:28.601Z,43.94
2018-07-19T18:47:55.597Z,44.22
2018-07-19T18:50:22.964Z,43.53
2018-07-19T18:52:49.938Z,44.29
2018-07-19T18:55:16.969Z,44.58
2018-07-19T18:57:43.948Z,45.11
2018-07-19T19:00:10.993Z,44.91
2018-07-19T19:02:38.091Z,44.65
2018-07-19T19:05:05.138Z,43.89
2018-07-19T19:07:32.258Z,43.85
2018-07-19T19:10:00.022Z,43.86
2018-07-19T19:12:26.976Z,44.36
2018-07-19T19:14:53.973Z,43.92
2018-07-19T19:17:20.957Z,43.55
2018-07-19T19:19:47.999Z,43.98
2018-07-19T19:22:14.993Z,44.06
2018-07-19T19:24:42.383Z,43.54
2018-07-19T19:27:09.408Z,44.27
2018-07-19T19:29:36.432Z,44.79
2018-07-19T19:32:03.542Z,45.21
2018-07-19T19:34:30.605Z,44.66
2018-07-19T19:36:57.729Z,45.05
2018-07-19T19:39:24.865Z,45.95
2018-07-19T19:41:52.849Z,45.62
2018-07-19T19:44:20.287Z,45.99
2018-07-19T19:46:47.301Z,46.06
2018-07-19T19:49:14.277Z,46.18
2018-07-19T19:51:41.302Z,46.44
2018-07-19T19:54:08.264Z,46.55
2018-07-19T19:56:35.286Z,46.83
2018-07-19T19:59:02.302Z,46.51
2018-07-19T20:01:29.332Z,47.18
2018-07-19T20:03:56.365Z,46.85
2018-07-19T20:06:23.589Z,47.23
2018-07-19T20:08:50.576Z,47.76
2018-07-19T20:11:17.585Z,47.61
2018-07-19T20:13:44.573Z,47.71
2018-07-19T20:16:11.589Z,47.63
2018-07-19T20:18:38.590Z,47.99
2018-07-19T20:21:05.762Z,48.38
2018-07-19T20:23:32.789Z,48.37
2018-07-19T20:25:59.778Z,48.64
2018-07-19T20:28:26.816Z,49.10
2018-07-19T20:30:53.853Z,49.22
2018-07-19T20:33:20.909Z,49.99
2018-07-19T20:35:48.005Z,50.26
2018-07-19T20:38:15.141Z,49.77
2018-07-19T20:40:42.951Z,50.70
2018-07-19T20:43:09.933Z,50.14
2018-07-19T20:45:36.984Z,50.47
2018-07-19T20:50:45.905Z,50.83
2018-07-19T20:53:12.926Z,51.03
2018-07-19T20:55:39.949Z,51.50
2018-07-19T20:58:06.941Z,52.28
2018-07-19T21:00:33.957Z,52.85
2018-07-19T21:03:00.997Z,52.96
2018-07-19T21:05:28.272Z,53.67
2018-07-19T21:07:55.253Z,52.99
2018-07-19T21:10:22.253Z,53.34
2018-07-19T21:12:49.285Z,53.92
2018-07-19T21:15:16.241Z,53.98
2018-07-19T21:17:43.257Z,53.93
2018-07-19T21:20:10.266Z,54.40
2018-07-19T21:22:37.313Z,54.35
2018-07-19T21:25:04.845Z,55.12
2018-07-19T21:27:32.601Z,55.16
2018-07-19T21:29:59.800Z,55.10
2018-07-19T21:32:26.788Z,54.87
2018-07-19T21:34:53.832Z,55.40
2018-07-19T21:37:20.817Z,55.94
2018-07-19T21:39:47.849Z,55.52
2018-07-19T21:42:14.997Z,56.18
2018-07-19T21:44:41.961Z,56.72
2018-07-19T21:47:08.948Z,57.23
2018-07-19T21:49:35.967Z,56.56
2018-07-19T21:52:02.978Z,57.25
2018-07-19T21:54:29.957Z,57.36
2018-07-19T21:56:56.956Z,57.19
2018-07-19T21:59:23.937Z,57.76
2018-07-19T22:01:50.908Z,57.65
2018-07-19T22:04:17.876Z,58.18
2018-07-19T22:06:45.154Z,58.32
2018-07-19T22:09:12.745Z,58.38
2018-07-19T22:11:39.753Z,58.20
2018-07-19T22:14:07.042Z,58.91
2018-07-19T22:16:34.268Z,58.18
2018-07-19T22:19:01.458Z,58.75
2018-07-19T22:21:28.476Z,59.30
2018-07-19T22:23:55.769Z,58.74
2018-07-19T22:26:22.881Z,58.99
2018-07-19T22:28:49.904Z,59.43
2018-07-19T22:31:17.325Z,59.38
2018-07-19T22:33:44.693Z,59.50
2018-07-19T22:36:11.677Z,59.99
2018-07-19T22:38:39.225Z,59.35
2018-07-19T22:41:06.697Z,60.03
2018-07-19T22:43:33.749Z,60.01
2018-07-19T22:46:00.772Z,60.05
2018-07-19T22:48:27.746Z,60.28
2018-07-19T22:50:54.837Z,60.26
2018-07-19T22:53:21.869Z,60.71
2018-07-19T22:55:50.608Z,60.58
2018-07-19T22:58:17.676Z,60.99
2018-07-19T23:00:44.685Z,61.05
2018-07-19T23:03:11.653Z,61.15
2018-07-19T23:05:38.657Z,61.21
2018-07-19T23:08:05.676Z,61.61
2018-07-19T23:10:32.689Z,60.97
2018-07-19T23:12:59.801Z,61.43
2018-07-19T23:15:27.798Z,61.56
2018-07-19T23:17:54.785Z,61.64
2018-07-19T23:20:21.753Z,62.46
2018-07-19T23:22:53.797Z,62.00
2018-07-19T23:25:20.804Z,61.40
2018-07-19T23:27:47.792Z,61.24
2018-07-19T23:30:15.065Z,60.15
2018-07-19T23:32:42.057Z,61.65
2018-07-19T23:35:09.105Z,61.94
2018-07-19T23:37:37.664Z,61.71
2018-07-19T23:40:25.346Z,61.93
2018-07-19T23:42:56.514Z,62.77
2018-07-19T23:45:29.940Z,62.16
2018-07-19T23:47:57.005Z,61.77
2018-07-19T23:50:23.995Z,61.89
2018-07-19T23:52:51.232Z,61.99
2018-07-19T23:55:18.270Z,61.84
2018-07-19T23:57:45.281Z,62.67
